sensor_id;sensor_type;location;lat;lon;timestamp;pressure;altitude;pressure_sealevel;temperature
65290;BMP180;51893;59.754;10.110;2022-11-23T00:01:39;100929.80;;;2.20
65290;BMP180;51893;59.754;10.110;2022-11-23T00:04:11;100929.60;;;2.20
65290;BMP180;51893;59.754;10.110;2022-11-23T00:06:40;100934.40;;;2.20
65290;BMP180;51893;59.754;10.110;2022-11-23T00:09:10;100936.60;;;2.20
65290;BMP180;51893;59.754;10.110;2022-11-23T00:11:38;100936.80;;;2.20
65290;BMP180;51893;59.754;10.110;2022-11-23T00:14:08;100932.20;;;2.20
65290;BMP180;51893;59.754;10.110;2022-11-23T00:16:36;100929.40;;;2.20
65290;BMP180;51893;59.754;10.110;2022-11-23T00:19:05;100926.80;;;2.20
65290;BMP180;51893;59.754;10.110;2022-11-23T00:21:33;100926.20;;;2.24
65290;BMP180;51893;59.754;10.110;2022-11-23T00:24:01;100924.60;;;2.24
65290;BMP180;51893;59.754;10.110;2022-11-23T00:26:36;100924.60;;;2.30
65290;BMP180;51893;59.754;10.110;2022-11-23T00:29:04;100922.60;;;2.30
65290;BMP180;51893;59.754;10.110;2022-11-23T00:31:33;100924.00;;;2.30
65290;BMP180;51893;59.754;10.110;2022-11-23T00:34:01;100920.60;;;2.20
65290;BMP180;51893;59.754;10.110;2022-11-23T00:36:30;100924.80;;;2.20
65290;BMP180;51893;59.754;10.110;2022-11-23T00:38:58;100922.60;;;2.20
65290;BMP180;51893;59.754;10.110;2022-11-23T00:41:27;100921.60;;;2.20
65290;BMP180;51893;59.754;10.110;2022-11-23T00:43:56;100922.60;;;2.20
65290;BMP180;51893;59.754;10.110;2022-11-23T00:46:26;100922.60;;;2.20
65290;BMP180;51893;59.754;10.110;2022-11-23T00:48:57;100919.00;;;2.20
65290;BMP180;51893;59.754;10.110;2022-11-23T00:51:32;100912.60;;;2.20
65290;BMP180;51893;59.754;10.110;2022-11-23T00:54:04;100913.60;;;2.20
65290;BMP180;51893;59.754;10.110;2022-11-23T00:56:34;100916.00;;;2.20
65290;BMP180;51893;59.754;10.110;2022-11-23T00:59:03;100915.60;;;2.26
65290;BMP180;51893;59.754;10.110;2022-11-23T01:01:34;100910.00;;;2.30
65290;BMP180;51893;59.754;10.110;2022-11-23T01:04:08;100906.40;;;2.30
65290;BMP180;51893;59.754;10.110;2022-11-23T01:06:39;100907.00;;;2.30
65290;BMP180;51893;59.754;10.110;2022-11-23T01:09:16;100902.00;;;2.30
65290;BMP180;51893;59.754;10.110;2022-11-23T01:11:45;100906.00;;;2.28
65290;BMP180;51893;59.754;10.110;2022-11-23T01:14:15;100905.00;;;2.28
65290;BMP180;51893;59.754;10.110;2022-11-23T01:16:44;100904.00;;;2.30
65290;BMP180;51893;59.754;10.110;2022-11-23T01:19:17;100901.00;;;2.30
65290;BMP180;51893;59.754;10.110;2022-11-23T01:21:47;100897.80;;;2.30
65290;BMP180;51893;59.754;10.110;2022-11-23T01:24:21;100902.20;;;2.24
65290;BMP180;51893;59.754;10.110;2022-11-23T01:26:52;100900.20;;;2.26
65290;BMP180;51893;59.754;10.110;2022-11-23T01:29:22;100900.60;;;2.28
65290;BMP180;51893;59.754;10.110;2022-11-23T01:31:51;100900.40;;;2.30
65290;BMP180;51893;59.754;10.110;2022-11-23T01:34:21;100894.20;;;2.30
65290;BMP180;51893;59.754;10.110;2022-11-23T01:36:50;100893.80;;;2.32
65290;BMP180;51893;59.754;10.110;2022-11-23T01:39:18;100890.80;;;2.38
65290;BMP180;51893;59.754;10.110;2022-11-23T01:41:46;100893.00;;;2.38
65290;BMP180;51893;59.754;10.110;2022-11-23T01:44:35;100893.60;;;2.32
65290;BMP180;51893;59.754;10.110;2022-11-23T01:47:07;100891.60;;;2.40
65290;BMP180;51893;59.754;10.110;2022-11-23T01:49:40;100893.00;;;2.40
65290;BMP180;51893;59.754;10.110;2022-11-23T01:52:15;100888.60;;;2.40
65290;BMP180;51893;59.754;10.110;2022-11-23T01:54:50;100886.00;;;2.40
65290;BMP180;51893;59.754;10.110;2022-11-23T01:57:34;100884.60;;;2.40
65290;BMP180;51893;59.754;10.110;2022-11-23T02:00:05;100884.00;;;2.40
65290;BMP180;51893;59.754;10.110;2022-11-23T02:02:37;100878.20;;;2.40
65290;BMP180;51893;59.754;10.110;2022-11-23T02:05:13;100879.00;;;2.50
65290;BMP180;51893;59.754;10.110;2022-11-23T02:07:41;100874.40;;;2.50
65290;BMP180;51893;59.754;10.110;2022-11-23T02:10:09;100879.20;;;2.50
65290;BMP180;51893;59.754;10.110;2022-11-23T02:12:37;100878.20;;;2.50
65290;BMP180;51893;59.754;10.110;2022-11-23T02:15:05;100881.80;;;2.50
65290;BMP180;51893;59.754;10.110;2022-11-23T02:17:36;100883.00;;;2.50
65290;BMP180;51893;59.754;10.110;2022-11-23T02:20:15;100879.60;;;2.58
65290;BMP180;51893;59.754;10.110;2022-11-23T02:25:59;100885.60;;;2.56
65290;BMP180;51893;59.754;10.110;2022-11-23T02:28:51;100883.40;;;2.60
65290;BMP180;51893;59.754;10.110;2022-11-23T02:31:21;100875.80;;;2.54
65290;BMP180;51893;59.754;10.110;2022-11-23T02:33:50;100877.00;;;2.50
65290;BMP180;51893;59.754;10.110;2022-11-23T02:36:38;100881.80;;;2.50
65290;BMP180;51893;59.754;10.110;2022-11-23T02:39:15;100880.00;;;2.56
65290;BMP180;51893;59.754;10.110;2022-11-23T02:41:51;100883.80;;;2.50
65290;BMP180;51893;59.754;10.110;2022-11-23T02:46:58;100865.00;;;2.50
65290;BMP180;51893;59.754;10.110;2022-11-23T02:49:26;100859.80;;;2.50
65290;BMP180;51893;59.754;10.110;2022-11-23T02:51:55;100870.60;;;2.56
65290;BMP180;51893;59.754;10.110;2022-11-23T02:54:22;100868.20;;;2.60
65290;BMP180;51893;59.754;10.110;2022-11-23T02:56:50;100870.00;;;2.60
65290;BMP180;51893;59.754;10.110;2022-11-23T02:59:19;100870.80;;;2.60
65290;BMP180;51893;59.754;10.110;2022-11-23T03:01:49;100872.00;;;2.60
65290;BMP180;51893;59.754;10.110;2022-11-23T03:04:16;100876.00;;;2.60
65290;BMP180;51893;59.754;10.110;2022-11-23T03:06:52;100855.20;;;2.58
65290;BMP180;51893;59.754;10.110;2022-11-23T03:09:22;100862.20;;;2.50
65290;BMP180;51893;59.754;10.110;2022-11-23T03:11:52;100865.20;;;2.50
65290;BMP180;51893;59.754;10.110;2022-11-23T03:14:21;100864.20;;;2.50
65290;BMP180;51893;59.754;10.110;2022-11-23T03:16:51;100861.00;;;2.50
65290;BMP180;51893;59.754;10.110;2022-11-23T03:19:19;100857.60;;;2.50
65290;BMP180;51893;59.754;10.110;2022-11-23T03:21:47;100860.60;;;2.58
65290;BMP180;51893;59.754;10.110;2022-11-23T03:24:15;100866.60;;;2.60
65290;BMP180;51893;59.754;10.110;2022-11-23T03:26:44;100863.60;;;2.60
65290;BMP180;51893;59.754;10.110;2022-11-23T03:29:13;100859.20;;;2.60
65290;BMP180;51893;59.754;10.110;2022-11-23T03:31:41;100856.00;;;2.58
65290;BMP180;51893;59.754;10.110;2022-11-23T03:34:10;100859.40;;;2.52
65290;BMP180;51893;59.754;10.110;2022-11-23T03:36:38;100857.80;;;2.50
65290;BMP180;51893;59.754;10.110;2022-11-23T03:39:06;100853.20;;;2.50
65290;BMP180;51893;59.754;10.110;2022-11-23T03:41:34;100858.20;;;2.50
65290;BMP180;51893;59.754;10.110;2022-11-23T03:44:02;100852.40;;;2.50
65290;BMP180;51893;59.754;10.110;2022-11-23T03:46:32;100855.80;;;2.50
65290;BMP180;51893;59.754;10.110;2022-11-23T03:49:02;100853.20;;;2.50
65290;BMP180;51893;59.754;10.110;2022-11-23T03:51:30;100853.40;;;2.50
65290;BMP180;51893;59.754;10.110;2022-11-23T03:54:00;100854.80;;;2.50
65290;BMP180;51893;59.754;10.110;2022-11-23T03:56:30;100856.80;;;2.50
65290;BMP180;51893;59.754;10.110;2022-11-23T03:58:58;100859.40;;;2.50
65290;BMP180;51893;59.754;10.110;2022-11-23T04:01:27;100855.60;;;2.40
65290;BMP180;51893;59.754;10.110;2022-11-23T04:03:55;100857.80;;;2.40
65290;BMP180;51893;59.754;10.110;2022-11-23T04:06:24;100861.40;;;2.36
65290;BMP180;51893;59.754;10.110;2022-11-23T04:08:55;100861.60;;;2.30
65290;BMP180;51893;59.754;10.110;2022-11-23T04:11:28;100857.40;;;2.32
65290;BMP180;51893;59.754;10.110;2022-11-23T04:13:56;100860.20;;;2.30
65290;BMP180;51893;59.754;10.110;2022-11-23T04:16:25;100844.80;;;2.30
65290;BMP180;51893;59.754;10.110;2022-11-23T04:18:53;100854.40;;;2.30
65290;BMP180;51893;59.754;10.110;2022-11-23T04:21:21;100847.40;;;2.30
65290;BMP180;51893;59.754;10.110;2022-11-23T04:23:49;100850.00;;;2.30
65290;BMP180;51893;59.754;10.110;2022-11-23T04:26:16;100849.00;;;2.30
65290;BMP180;51893;59.754;10.110;2022-11-23T04:28:46;100851.40;;;2.26
65290;BMP180;51893;59.754;10.110;2022-11-23T04:31:14;100847.40;;;2.26
65290;BMP180;51893;59.754;10.110;2022-11-23T04:33:42;100851.20;;;2.30
65290;BMP180;51893;59.754;10.110;2022-11-23T04:36:13;100838.80;;;2.30
65290;BMP180;51893;59.754;10.110;2022-11-23T04:38:41;100833.80;;;2.30
65290;BMP180;51893;59.754;10.110;2022-11-23T04:41:09;100830.60;;;2.30
65290;BMP180;51893;59.754;10.110;2022-11-23T04:43:38;100835.60;;;2.30
65290;BMP180;51893;59.754;10.110;2022-11-23T04:46:06;100832.20;;;2.30
65290;BMP180;51893;59.754;10.110;2022-11-23T04:48:34;100836.00;;;2.20
65290;BMP180;51893;59.754;10.110;2022-11-23T04:51:02;100841.80;;;2.20
65290;BMP180;51893;59.754;10.110;2022-11-23T04:53:33;100835.80;;;2.20
65290;BMP180;51893;59.754;10.110;2022-11-23T04:56:01;100831.00;;;2.20
65290;BMP180;51893;59.754;10.110;2022-11-23T04:58:29;100830.80;;;2.20
65290;BMP180;51893;59.754;10.110;2022-11-23T05:01:02;100834.40;;;2.20
65290;BMP180;51893;59.754;10.110;2022-11-23T05:03:31;100834.40;;;2.20
65290;BMP180;51893;59.754;10.110;2022-11-23T05:06:03;100829.80;;;2.20
65290;BMP180;51893;59.754;10.110;2022-11-23T05:08:32;100829.20;;;2.22
65290;BMP180;51893;59.754;10.110;2022-11-23T05:10:59;100832.00;;;2.20
65290;BMP180;51893;59.754;10.110;2022-11-23T05:13:28;100834.00;;;2.20
65290;BMP180;51893;59.754;10.110;2022-11-23T05:15:56;100831.60;;;2.24
65290;BMP180;51893;59.754;10.110;2022-11-23T05:18:24;100833.00;;;2.30
65290;BMP180;51893;59.754;10.110;2022-11-23T05:20:52;100836.40;;;2.30
65290;BMP180;51893;59.754;10.110;2022-11-23T05:23:22;100833.20;;;2.30
65290;BMP180;51893;59.754;10.110;2022-11-23T05:25:52;100833.60;;;2.36
65290;BMP180;51893;59.754;10.110;2022-11-23T05:28:22;100837.40;;;2.40
65290;BMP180;51893;59.754;10.110;2022-11-23T05:31:09;100840.00;;;2.30
65290;BMP180;51893;59.754;10.110;2022-11-23T05:33:36;100841.60;;;2.30
65290;BMP180;51893;59.754;10.110;2022-11-23T05:36:05;100840.40;;;2.20
65290;BMP180;51893;59.754;10.110;2022-11-23T05:38:34;100839.00;;;2.20
65290;BMP180;51893;59.754;10.110;2022-11-23T05:41:02;100837.60;;;2.20
65290;BMP180;51893;59.754;10.110;2022-11-23T05:43:30;100834.60;;;2.20
65290;BMP180;51893;59.754;10.110;2022-11-23T05:45:59;100832.40;;;2.30
65290;BMP180;51893;59.754;10.110;2022-11-23T05:48:27;100834.00;;;2.28
65290;BMP180;51893;59.754;10.110;2022-11-23T05:50:55;100830.60;;;2.24
65290;BMP180;51893;59.754;10.110;2022-11-23T05:53:31;100834.60;;;2.24
65290;BMP180;51893;59.754;10.110;2022-11-23T05:56:01;100828.60;;;2.26
65290;BMP180;51893;59.754;10.110;2022-11-23T05:58:29;100826.00;;;2.30
65290;BMP180;51893;59.754;10.110;2022-11-23T06:01:00;100824.20;;;2.30
65290;BMP180;51893;59.754;10.110;2022-11-23T06:03:29;100831.80;;;2.30
65290;BMP180;51893;59.754;10.110;2022-11-23T06:05:58;100826.40;;;2.32
65290;BMP180;51893;59.754;10.110;2022-11-23T06:08:26;100825.00;;;2.40
65290;BMP180;51893;59.754;10.110;2022-11-23T06:10:54;100823.60;;;2.50
65290;BMP180;51893;59.754;10.110;2022-11-23T06:13:22;100830.60;;;2.50
65290;BMP180;51893;59.754;10.110;2022-11-23T06:15:50;100823.40;;;2.50
65290;BMP180;51893;59.754;10.110;2022-11-23T06:18:19;100831.00;;;2.50
65290;BMP180;51893;59.754;10.110;2022-11-23T06:20:47;100829.00;;;2.50
65290;BMP180;51893;59.754;10.110;2022-11-23T06:23:15;100830.60;;;2.60
65290;BMP180;51893;59.754;10.110;2022-11-23T06:25:43;100830.40;;;2.60
65290;BMP180;51893;59.754;10.110;2022-11-23T06:28:11;100831.00;;;2.60
65290;BMP180;51893;59.754;10.110;2022-11-23T06:30:40;100830.40;;;2.62
65290;BMP180;51893;59.754;10.110;2022-11-23T06:33:10;100832.20;;;2.70
65290;BMP180;51893;59.754;10.110;2022-11-23T06:35:37;100830.80;;;2.62
65290;BMP180;51893;59.754;10.110;2022-11-23T06:38:06;100835.80;;;2.64
65290;BMP180;51893;59.754;10.110;2022-11-23T06:40:35;100844.60;;;2.60
65290;BMP180;51893;59.754;10.110;2022-11-23T06:43:04;100836.20;;;2.60
65290;BMP180;51893;59.754;10.110;2022-11-23T06:45:32;100839.40;;;2.60
65290;BMP180;51893;59.754;10.110;2022-11-23T06:48:08;100842.60;;;2.60
65290;BMP180;51893;59.754;10.110;2022-11-23T06:50:37;100840.80;;;2.50
65290;BMP180;51893;59.754;10.110;2022-11-23T06:53:08;100839.60;;;2.50
65290;BMP180;51893;59.754;10.110;2022-11-23T06:55:39;100838.60;;;2.50
65290;BMP180;51893;59.754;10.110;2022-11-23T06:58:08;100836.00;;;2.50
65290;BMP180;51893;59.754;10.110;2022-11-23T07:00:38;100832.60;;;2.46
65290;BMP180;51893;59.754;10.110;2022-11-23T07:03:20;100832.40;;;2.40
65290;BMP180;51893;59.754;10.110;2022-11-23T07:05:49;100832.40;;;2.42
65290;BMP180;51893;59.754;10.110;2022-11-23T07:08:18;100825.40;;;2.40
65290;BMP180;51893;59.754;10.110;2022-11-23T07:10:49;100823.80;;;2.46
65290;BMP180;51893;59.754;10.110;2022-11-23T07:13:17;100821.80;;;2.50
65290;BMP180;51893;59.754;10.110;2022-11-23T07:15:49;100826.40;;;2.50
65290;BMP180;51893;59.754;10.110;2022-11-23T07:18:18;100827.80;;;2.40
65290;BMP180;51893;59.754;10.110;2022-11-23T07:20:46;100829.60;;;2.40
65290;BMP180;51893;59.754;10.110;2022-11-23T07:23:14;100825.80;;;2.50
65290;BMP180;51893;59.754;10.110;2022-11-23T07:25:42;100831.00;;;2.50
65290;BMP180;51893;59.754;10.110;2022-11-23T07:28:13;100834.60;;;2.50
65290;BMP180;51893;59.754;10.110;2022-11-23T07:30:41;100833.80;;;2.50
65290;BMP180;51893;59.754;10.110;2022-11-23T07:33:11;100829.00;;;2.52
65290;BMP180;51893;59.754;10.110;2022-11-23T07:35:41;100833.60;;;2.54
65290;BMP180;51893;59.754;10.110;2022-11-23T07:38:09;100828.00;;;2.60
65290;BMP180;51893;59.754;10.110;2022-11-23T07:40:39;100829.00;;;2.60
65290;BMP180;51893;59.754;10.110;2022-11-23T07:43:09;100827.20;;;2.62
65290;BMP180;51893;59.754;10.110;2022-11-23T07:45:37;100822.80;;;2.70
65290;BMP180;51893;59.754;10.110;2022-11-23T07:48:07;100821.80;;;2.70
65290;BMP180;51893;59.754;10.110;2022-11-23T07:50:38;100821.40;;;2.66
65290;BMP180;51893;59.754;10.110;2022-11-23T07:53:11;100818.40;;;2.64
65290;BMP180;51893;59.754;10.110;2022-11-23T07:55:39;100820.60;;;2.70
65290;BMP180;51893;59.754;10.110;2022-11-23T07:58:10;100821.00;;;2.70
65290;BMP180;51893;59.754;10.110;2022-11-23T08:00:38;100818.80;;;2.70
65290;BMP180;51893;59.754;10.110;2022-11-23T08:03:12;100819.00;;;2.70
65290;BMP180;51893;59.754;10.110;2022-11-23T08:05:58;100822.80;;;2.70
65290;BMP180;51893;59.754;10.110;2022-11-23T08:08:26;100820.60;;;2.60
65290;BMP180;51893;59.754;10.110;2022-11-23T08:10:56;100819.40;;;2.60
65290;BMP180;51893;59.754;10.110;2022-11-23T08:13:26;100820.40;;;2.60
65290;BMP180;51893;59.754;10.110;2022-11-23T08:15:55;100819.40;;;2.60
65290;BMP180;51893;59.754;10.110;2022-11-23T08:18:24;100826.80;;;2.64
65290;BMP180;51893;59.754;10.110;2022-11-23T08:20:53;100823.00;;;2.60
65290;BMP180;51893;59.754;10.110;2022-11-23T08:23:22;100830.40;;;2.60
65290;BMP180;51893;59.754;10.110;2022-11-23T08:25:54;100824.80;;;2.60
65290;BMP180;51893;59.754;10.110;2022-11-23T08:28:22;100826.00;;;2.60
65290;BMP180;51893;59.754;10.110;2022-11-23T08:30:51;100818.40;;;2.58
65290;BMP180;51893;59.754;10.110;2022-11-23T08:33:19;100823.60;;;2.60
65290;BMP180;51893;59.754;10.110;2022-11-23T08:35:48;100819.00;;;2.60
65290;BMP180;51893;59.754;10.110;2022-11-23T08:38:16;100819.60;;;2.58
65290;BMP180;51893;59.754;10.110;2022-11-23T08:40:44;100821.80;;;2.50
65290;BMP180;51893;59.754;10.110;2022-11-23T08:43:13;100818.60;;;2.50
65290;BMP180;51893;59.754;10.110;2022-11-23T08:45:41;100824.00;;;2.50
65290;BMP180;51893;59.754;10.110;2022-11-23T08:48:09;100831.40;;;2.50
65290;BMP180;51893;59.754;10.110;2022-11-23T08:50:38;100826.00;;;2.50
65290;BMP180;51893;59.754;10.110;2022-11-23T08:53:08;100822.80;;;2.46
65290;BMP180;51893;59.754;10.110;2022-11-23T08:55:38;100830.60;;;2.46
65290;BMP180;51893;59.754;10.110;2022-11-23T08:58:07;100823.00;;;2.40
65290;BMP180;51893;59.754;10.110;2022-11-23T09:00:40;100820.20;;;2.40
65290;BMP180;51893;59.754;10.110;2022-11-23T09:03:08;100822.00;;;2.40
65290;BMP180;51893;59.754;10.110;2022-11-23T09:05:37;100817.80;;;2.40
65290;BMP180;51893;59.754;10.110;2022-11-23T09:08:07;100818.60;;;2.40
65290;BMP180;51893;59.754;10.110;2022-11-23T09:10:39;100819.60;;;2.50
65290;BMP180;51893;59.754;10.110;2022-11-23T09:13:09;100818.40;;;2.42
65290;BMP180;51893;59.754;10.110;2022-11-23T09:15:36;100820.20;;;2.40
65290;BMP180;51893;59.754;10.110;2022-11-23T09:18:05;100818.40;;;2.40
65290;BMP180;51893;59.754;10.110;2022-11-23T09:20:33;100821.00;;;2.32
65290;BMP180;51893;59.754;10.110;2022-11-23T09:23:02;100819.20;;;2.40
65290;BMP180;51893;59.754;10.110;2022-11-23T09:25:31;100823.60;;;2.40
65290;BMP180;51893;59.754;10.110;2022-11-23T09:27:59;100823.00;;;2.42
65290;BMP180;51893;59.754;10.110;2022-11-23T09:30:28;100820.80;;;2.46
65290;BMP180;51893;59.754;10.110;2022-11-23T09:32:59;100815.40;;;2.48
65290;BMP180;51893;59.754;10.110;2022-11-23T09:35:28;100816.40;;;2.50
65290;BMP180;51893;59.754;10.110;2022-11-23T09:38:00;100819.60;;;2.50
65290;BMP180;51893;59.754;10.110;2022-11-23T09:40:32;100816.40;;;2.50
65290;BMP180;51893;59.754;10.110;2022-11-23T09:43:47;100817.40;;;2.50
65290;BMP180;51893;59.754;10.110;2022-11-23T09:46:36;100821.80;;;2.44
65290;BMP180;51893;59.754;10.110;2022-11-23T09:49:19;100826.40;;;2.42
65290;BMP180;51893;59.754;10.110;2022-11-23T09:51:54;100826.80;;;2.48
65290;BMP180;51893;59.754;10.110;2022-11-23T09:54:31;100827.40;;;2.50
65290;BMP180;51893;59.754;10.110;2022-11-23T09:57:03;100827.60;;;2.50
65290;BMP180;51893;59.754;10.110;2022-11-23T09:59:41;100823.80;;;2.44
65290;BMP180;51893;59.754;10.110;2022-11-23T10:02:24;100829.80;;;2.40
65290;BMP180;51893;59.754;10.110;2022-11-23T10:04:58;100826.60;;;2.40
65290;BMP180;51893;59.754;10.110;2022-11-23T10:13:24;100817.20;;;2.50
65290;BMP180;51893;59.754;10.110;2022-11-23T10:19:36;100823.60;;;2.50
65290;BMP180;51893;59.754;10.110;2022-11-23T10:22:34;100825.20;;;2.50
65290;BMP180;51893;59.754;10.110;2022-11-23T10:25:30;100822.60;;;2.50
65290;BMP180;51893;59.754;10.110;2022-11-23T10:28:15;100822.40;;;2.50
65290;BMP180;51893;59.754;10.110;2022-11-23T10:31:03;100823.40;;;2.52
65290;BMP180;51893;59.754;10.110;2022-11-23T10:33:48;100826.20;;;2.60
65290;BMP180;51893;59.754;10.110;2022-11-23T10:36:18;100823.00;;;2.60
65290;BMP180;51893;59.754;10.110;2022-11-23T10:38:53;100819.00;;;2.60
65290;BMP180;51893;59.754;10.110;2022-11-23T10:41:24;100816.80;;;2.60
65290;BMP180;51893;59.754;10.110;2022-11-23T10:44:04;100813.40;;;2.60
65290;BMP180;51893;59.754;10.110;2022-11-23T10:46:38;100816.20;;;2.60
65290;BMP180;51893;59.754;10.110;2022-11-23T10:49:34;100815.20;;;2.60
65290;BMP180;51893;59.754;10.110;2022-11-23T10:52:04;100809.00;;;2.70
65290;BMP180;51893;59.754;10.110;2022-11-23T10:54:53;100809.40;;;2.70
65290;BMP180;51893;59.754;10.110;2022-11-23T11:00:18;100806.00;;;2.70
65290;BMP180;51893;59.754;10.110;2022-11-23T11:02:50;100806.80;;;2.60
65290;BMP180;51893;59.754;10.110;2022-11-23T11:05:35;100807.40;;;2.60
65290;BMP180;51893;59.754;10.110;2022-11-23T11:08:31;100799.60;;;2.62
65290;BMP180;51893;59.754;10.110;2022-11-23T11:11:09;100801.20;;;2.70
65290;BMP180;51893;59.754;10.110;2022-11-23T11:13:46;100799.80;;;2.70
65290;BMP180;51893;59.754;10.110;2022-11-23T11:16:27;100799.00;;;2.70
65290;BMP180;51893;59.754;10.110;2022-11-23T11:21:49;100797.60;;;2.70
65290;BMP180;51893;59.754;10.110;2022-11-23T11:24:30;100801.20;;;2.70
65290;BMP180;51893;59.754;10.110;2022-11-23T11:27:15;100801.20;;;2.70
65290;BMP180;51893;59.754;10.110;2022-11-23T11:32:45;100804.20;;;2.70
65290;BMP180;51893;59.754;10.110;2022-11-23T11:35:28;100805.60;;;2.70
65290;BMP180;51893;59.754;10.110;2022-11-23T11:38:16;100801.60;;;2.70
65290;BMP180;51893;59.754;10.110;2022-11-23T11:40:49;100802.00;;;2.70
65290;BMP180;51893;59.754;10.110;2022-11-23T11:43:29;100800.00;;;2.62
65290;BMP180;51893;59.754;10.110;2022-11-23T11:46:23;100799.40;;;2.66
65290;BMP180;51893;59.754;10.110;2022-11-23T11:49:11;100799.20;;;2.70
65290;BMP180;51893;59.754;10.110;2022-11-23T11:51:52;100799.20;;;2.60
65290;BMP180;51893;59.754;10.110;2022-11-23T11:54:35;100802.60;;;2.60
65290;BMP180;51893;59.754;10.110;2022-11-23T11:57:35;100798.80;;;2.50
65290;BMP180;51893;59.754;10.110;2022-11-23T12:00:18;100800.80;;;2.58
65290;BMP180;51893;59.754;10.110;2022-11-23T12:03:17;100806.80;;;2.60
65290;BMP180;51893;59.754;10.110;2022-11-23T12:05:51;100805.40;;;2.60
65290;BMP180;51893;59.754;10.110;2022-11-23T12:08:42;100804.80;;;2.70
65290;BMP180;51893;59.754;10.110;2022-11-23T12:11:12;100802.60;;;2.70
65290;BMP180;51893;59.754;10.110;2022-11-23T12:13:44;100805.00;;;2.70
65290;BMP180;51893;59.754;10.110;2022-11-23T12:16:46;100806.20;;;2.70
65290;BMP180;51893;59.754;10.110;2022-11-23T12:20:32;100808.00;;;2.70
65290;BMP180;51893;59.754;10.110;2022-11-23T12:23:47;100808.00;;;2.70
65290;BMP180;51893;59.754;10.110;2022-11-23T12:26:31;100804.20;;;2.70
65290;BMP180;51893;59.754;10.110;2022-11-23T12:38:53;100811.80;;;2.70
65290;BMP180;51893;59.754;10.110;2022-11-23T12:41:35;100816.60;;;2.70
65290;BMP180;51893;59.754;10.110;2022-11-23T12:54:11;100817.20;;;2.60
65290;BMP180;51893;59.754;10.110;2022-11-23T13:12:15;100812.80;;;2.54
65290;BMP180;51893;59.754;10.110;2022-11-23T13:15:12;100820.40;;;2.58
65290;BMP180;51893;59.754;10.110;2022-11-23T13:18:36;100816.60;;;2.54
65290;BMP180;51893;59.754;10.110;2022-11-23T13:21:25;100816.20;;;2.52
65290;BMP180;51893;59.754;10.110;2022-11-23T13:23:56;100816.40;;;2.50
65290;BMP180;51893;59.754;10.110;2022-11-23T13:26:28;100824.40;;;2.50
65290;BMP180;51893;59.754;10.110;2022-11-23T13:29:56;100826.20;;;2.50
65290;BMP180;51893;59.754;10.110;2022-11-23T13:33:24;100829.40;;;2.50
65290;BMP180;51893;59.754;10.110;2022-11-23T13:35:58;100832.80;;;2.50
65290;BMP180;51893;59.754;10.110;2022-11-23T13:38:43;100834.20;;;2.50
65290;BMP180;51893;59.754;10.110;2022-11-23T13:57:39;100824.40;;;2.40
65290;BMP180;51893;59.754;10.110;2022-11-23T14:00:49;100825.00;;;2.40
65290;BMP180;51893;59.754;10.110;2022-11-23T14:06:39;100822.60;;;2.50
65290;BMP180;51893;59.754;10.110;2022-11-23T14:12:53;100823.80;;;2.50
65290;BMP180;51893;59.754;10.110;2022-11-23T14:15:29;100820.80;;;2.52
65290;BMP180;51893;59.754;10.110;2022-11-23T14:21:38;100825.00;;;2.60
65290;BMP180;51893;59.754;10.110;2022-11-23T14:40:05;100843.20;;;2.64
65290;BMP180;51893;59.754;10.110;2022-11-23T14:42:45;100843.40;;;2.62
65290;BMP180;51893;59.754;10.110;2022-11-23T14:45:20;100840.40;;;2.70
65290;BMP180;51893;59.754;10.110;2022-11-23T14:47:49;100844.00;;;2.70
65290;BMP180;51893;59.754;10.110;2022-11-23T14:50:28;100838.40;;;2.70
65290;BMP180;51893;59.754;10.110;2022-11-23T14:52:58;100837.00;;;2.70
65290;BMP180;51893;59.754;10.110;2022-11-23T14:55:29;100838.80;;;2.70
65290;BMP180;51893;59.754;10.110;2022-11-23T14:58:01;100833.20;;;2.70
65290;BMP180;51893;59.754;10.110;2022-11-23T15:00:39;100833.40;;;2.70
65290;BMP180;51893;59.754;10.110;2022-11-23T15:03:20;100834.80;;;2.70
65290;BMP180;51893;59.754;10.110;2022-11-23T15:06:16;100838.40;;;2.78
65290;BMP180;51893;59.754;10.110;2022-11-23T15:09:01;100841.20;;;2.80
65290;BMP180;51893;59.754;10.110;2022-11-23T15:11:37;100837.20;;;2.80
65290;BMP180;51893;59.754;10.110;2022-11-23T15:14:24;100840.20;;;2.80
65290;BMP180;51893;59.754;10.110;2022-11-23T15:16:52;100844.40;;;2.80
65290;BMP180;51893;59.754;10.110;2022-11-23T15:19:28;100843.80;;;2.80
65290;BMP180;51893;59.754;10.110;2022-11-23T15:21:57;100844.40;;;2.80
65290;BMP180;51893;59.754;10.110;2022-11-23T15:24:29;100848.40;;;2.90
65290;BMP180;51893;59.754;10.110;2022-11-23T15:27:04;100851.00;;;2.90
65290;BMP180;51893;59.754;10.110;2022-11-23T15:29:57;100855.20;;;2.90
65290;BMP180;51893;59.754;10.110;2022-11-23T15:32:31;100856.00;;;2.90
65290;BMP180;51893;59.754;10.110;2022-11-23T15:35:09;100854.60;;;2.90
65290;BMP180;51893;59.754;10.110;2022-11-23T15:37:49;100850.80;;;2.90
65290;BMP180;51893;59.754;10.110;2022-11-23T15:40:19;100852.80;;;3.00
65290;BMP180;51893;59.754;10.110;2022-11-23T15:42:52;100857.80;;;3.00
65290;BMP180;51893;59.754;10.110;2022-11-23T15:48:25;100853.20;;;3.02
65290;BMP180;51893;59.754;10.110;2022-11-23T15:51:04;100848.20;;;3.00
65290;BMP180;51893;59.754;10.110;2022-11-23T15:53:50;100848.40;;;3.00
65290;BMP180;51893;59.754;10.110;2022-11-23T15:56:38;100852.60;;;3.00
65290;BMP180;51893;59.754;10.110;2022-11-23T16:02:05;100849.20;;;3.10
65290;BMP180;51893;59.754;10.110;2022-11-23T16:04:38;100855.80;;;3.10
65290;BMP180;51893;59.754;10.110;2022-11-23T16:07:28;100856.60;;;3.10
65290;BMP180;51893;59.754;10.110;2022-11-23T16:10:17;100857.80;;;3.10
65290;BMP180;51893;59.754;10.110;2022-11-23T16:12:53;100855.20;;;3.06
65290;BMP180;51893;59.754;10.110;2022-11-23T16:18:21;100860.60;;;3.10
65290;BMP180;51893;59.754;10.110;2022-11-23T16:20:57;100857.80;;;3.10
65290;BMP180;51893;59.754;10.110;2022-11-23T16:23:44;100852.20;;;3.10
65290;BMP180;51893;59.754;10.110;2022-11-23T16:26:16;100857.00;;;3.10